Hauptseite
METAR-TAF:

METAR-TAF

Flughäfen :

London Stansted Airport

London-Stansted, England

Breite: 51-53N, Länge: 000-14E, Höhe: 106 m

Beobachtung

Neuester Wetterbericht von vor 37 Minuten, um 00:20 UTC
Wind 3 kt aus Nord/Nordost
Temperatur 11°C
Luftfeuchtigkeit 66%
Luftdruck 1001 hPa
Sichtweite 10 km oder mehr

METAR: EGSS 230020Z AUTO 03003KT 9999 NCD 11/05 Q1001

Zeit: 01:57 (00:57 UTC)

Prognose

Neuester Wetterbericht von vor 1 Stunde und 59 Minuten, um 22:58 UTC
Gültige Prognose vom 23 um 00 UTC bis 24 um 06 UTC
Wind 7 kt aus Ost
Sichtweite 10 km oder mehr
keine Wolken unter 1500 m und keine Kumulonimbus oder Gewitterwolken
Wahrscheinlichkeit 40%
vom 23 um 03 UTC bis 23 um 07 UTC
Sichtweite: 8000 m
Wahrscheinlichkeit 30%
vom 24 um 02 UTC bis 24 um 06 UTC
Sichtweite: 8000 m

TAF: EGSS 222258Z 2300/2406 09007KT CAVOK PROB40 2303/2307 8000 PROB30 2402/2406 8000

Wetterbeobachtungen und Prognosen von mehr als 4000 Flughäfen (METAR und TAF Bericht).

Die verfügbaren Stationen werden durch gelbe und rote Markierungen auf der Karte dargestellt.

Führen Sie die Maus auf sie, um den Namen der Station zu sehen.

Darauf klicken, um die Beobachtung von Wetterbeobachtungen und Prognosen zu sehen.

Um die Karte zu ändern : klicken Sie auf den grünen Tasten mit einem schwarzen Kreuz Zum Vergrößern, auf den grünen Button mit einem Gedankenstrich zu verkleinern, oder auf die grünen Pfeile für benachbarte Karten.


METAR-TAF: